Погода Старо-Русскоена неделю

Тверская область, Россия

19 - 25 мая
  • 19мая
    Сегодня
    +8°
    +23°
    Ясно и безоблачно
    ВремяПогодаТемператураВлажностьДавлениеВетер, м/сВероятность осадков
    00:00Ясно и безоблачно+9°C70 %751 мм2.1 м/с2 %
    03:00Ясно и безоблачно+6°C76 %751 мм2.0 м/с2 %
    06:00Ясно и безоблачно+8°C74 %751 мм2.1 м/с2 %
    09:00Ясно и безоблачно+16°C63 %751 мм1.5 м/с2 %
    12:00Ясно и безоблачно+20°C43 %750 мм2.2 м/с2 %
    15:00Ясно и безоблачно+22°C41 %750 мм2.2 м/с2 %
    18:00Ясно и безоблачно+22°C44 %749 мм2.1 м/с2 %
    21:00Ясно и безоблачно+15°C67 %748 мм2.4 м/с2 %
  • 20мая
    Понедельник
    +9°
    +24°
    Ясно и безоблачно
    ВремяПогодаТемператураВлажностьДавлениеВетер, м/сВероятность осадков
    00:00Ясно и безоблачно+11°C70 %748 мм3.0 м/с2 %
    03:00Ясно и безоблачно+9°C77 %748 мм2.6 м/с2 %
    06:00Практически безоблачно+11°C76 %748 мм2.8 м/с2 %
    09:00Ясно и безоблачно+19°C63 %748 мм2.3 м/с2 %
    12:00Практически безоблачно+23°C43 %748 мм3.6 м/с2 %
    15:00Ясно и безоблачно+24°C41 %748 мм4.2 м/с6 %
    18:00Небольшая облачность+23°C46 %748 мм3.9 м/с17 %
    21:00Ясно и безоблачно+16°C76 %748 мм2.1 м/с9 %
  • 21мая
    Вторник
    +7°
    +23°
    Практически безоблачно
    ВремяПогодаТемператураВлажностьДавлениеВетер, м/сВероятность осадков
    00:00Облачно с прояснениями+12°C91 %749 мм1.8 м/с2 %
    03:00Практически безоблачно+10°C96 %749 мм1.8 м/с2 %
    06:00Ясно и безоблачно+11°C94 %750 мм1.8 м/с4 %
    09:00Облачно с прояснениями+17°C79 %751 мм1.5 м/с13 %
    12:00Практически безоблачно+22°C64 %751 мм1.1 м/с28 %
    15:00Практически безоблачно+23°C54 %750 мм2.8 м/с34 %
    18:00Небольшая облачность+23°C50 %750 мм2.0 м/с24 %
    21:00Небольшая облачность+16°C53 %750 мм3.0 м/с5 %
  • 22мая
    Среда
    +6°
    +21°
    Ясно и безоблачно
    ВремяПогодаТемператураВлажностьДавлениеВетер, м/сВероятность осадков
    00:00Ясно и безоблачно+12°C49 %751 мм2.9 м/с2 %
    03:00Ясно и безоблачно+8°C66 %751 мм2.6 м/с3 %
    06:00Ясно и безоблачно+8°C64 %752 мм3.7 м/с3 %
    09:00Ясно и безоблачно+16°C50 %753 мм3.9 м/с3 %
    12:00Ясно и безоблачно+20°C41 %753 мм4.0 м/с3 %
    15:00Ясно и безоблачно+21°C39 %753 мм4.0 м/с2 %
    18:00Ясно и безоблачно+19°C41 %753 мм4.7 м/с2 %
    21:00Ясно и безоблачно+14°C42 %755 мм5.1 м/с2 %
  • 23мая
    Четверг
    +3°
    +19°
    Ясно и безоблачно
    ВремяПогодаТемператураВлажностьДавлениеВетер, м/сВероятность осадков
    00:00Ясно и безоблачно+10°C43 %756 мм4.1 м/с2 %
    03:00Ясно и безоблачно+7°C53 %757 мм3.1 м/с2 %
    06:00Ясно и безоблачно+7°C56 %758 мм2.8 м/с2 %
    09:00Ясно и безоблачно+14°C37 %759 мм4.3 м/с2 %
    12:00Ясно и безоблачно+16°C33 %759 мм4.1 м/с2 %
    15:00Ясно и безоблачно+18°C32 %759 мм3.2 м/с2 %
    18:00Ясно и безоблачно+18°C35 %758 мм2.9 м/с2 %
    21:00Ясно и безоблачно+12°C57 %758 мм2.1 м/с2 %
Мы используем cookies
Соглашаюсь